Time,TemperatureF,DewpointF,PressureIn,WindDirection,WindDirectionDegrees,WindSpeedMPH,WindSpeedGustMPH,Humidity,HourlyPrecipIn,Conditions,Clouds,dailyrainin,SoftwareType,DateUTC
2013-10-23 00:01:00,37.6,36.3,29.89,SE,125,0.0,0.0,95,0.00,,,0.21,meteohub,2013-10-23 04:01:00,
2013-10-23 00:02:00,37.6,36.3,29.89,SE,125,0.0,0.0,95,0.00,,,0.21,meteohub,2013-10-23 04:02:00,
2013-10-23 00:03:00,37.6,36.3,29.89,SE,125,0.0,0.0,95,0.00,,,0.21,meteohub,2013-10-23 04:03:00,
2013-10-23 00:04:00,37.6,36.3,29.89,SE,124,0.0,0.0,95,0.00,,,0.21,meteohub,2013-10-23 04:04:00,
2013-10-23 00:09:00,37.4,36.1,29.89,SE,125,0.0,0.0,95,0.00,,,0.00,meteohub,2013-10-23 04:09:00,
2013-10-23 00:14:00,37.4,36.1,29.89,SE,125,0.0,0.0,95,0.00,,,0.00,meteohub,2013-10-23 04:14:00,
2013-10-23 00:19:00,37.2,36.0,29.88,SE,125,0.0,0.0,95,0.00,,,0.00,meteohub,2013-10-23 04:19:00,
2013-10-23 00:24:00,37.2,36.0,29.88,SE,125,0.0,0.0,95,0.00,,,0.00,meteohub,2013-10-23 04:24:00,
2013-10-23 00:29:00,37.2,36.0,29.88,SE,125,0.0,0.0,95,0.00,,,0.00,meteohub,2013-10-23 04:29:00,
2013-10-23 00:34:00,37.2,36.0,29.88,SE,126,0.0,0.0,95,0.00,,,0.00,meteohub,2013-10-23 04:34:00,
2013-10-23 00:39:00,37.2,36.0,29.88,SE,125,0.0,0.0,95,0.00,,,0.00,meteohub,2013-10-23 04:39:00,
2013-10-23 00:45:00,37.4,36.1,29.88,SE,126,0.0,0.0,95,0.00,,,0.00,meteohub,2013-10-23 04:45:00,
2013-10-23 00:50:00,37.4,36.1,29.87,SE,125,0.0,0.0,95,0.00,,,0.00,meteohub,2013-10-23 04:50:00,
2013-10-23 00:55:00,37.6,36.3,29.87,SE,125,0.0,0.0,95,0.00,,,0.00,meteohub,2013-10-23 04:55:00,
2013-10-23 01:00:00,37.4,36.1,29.87,SE,125,0.0,0.0,95,0.00,,,0.00,meteohub,2013-10-23 05:00:00,
2013-10-23 01:05:00,37.2,36.0,29.87,SE,125,0.0,0.0,95,0.00,,,0.00,meteohub,2013-10-23 05:05:00,
2013-10-23 01:10:00,37.2,36.0,29.87,SE,125,0.0,0.0,95,0.00,,,0.00,meteohub,2013-10-23 05:10:00,
2013-10-23 01:15:00,37.2,36.0,29.87,SE,125,0.0,0.0,95,0.00,,,0.00,meteohub,2013-10-23 05:15:00,
2013-10-23 01:20:00,37.2,36.0,29.87,SE,125,0.0,0.0,95,0.00,,,0.00,meteohub,2013-10-23 05:20:00,
2013-10-23 01:25:00,37.2,36.0,29.87,SE,125,0.0,0.0,95,0.00,,,0.00,meteohub,2013-10-23 05:25:00,
2013-10-23 01:30:00,37.0,35.8,29.86,SE,124,0.0,0.0,95,0.00,,,0.00,meteohub,2013-10-23 05:30:00,
2013-10-23 01:35:00,36.9,35.6,29.86,SE,125,0.0,0.0,95,0.00,,,0.00,meteohub,2013-10-23 05:35:00,
2013-10-23 01:40:00,36.9,35.6,29.86,SE,125,0.0,0.0,95,0.00,,,0.00,meteohub,2013-10-23 05:40:00,
2013-10-23 01:46:00,36.7,35.4,29.86,SE,125,0.0,0.0,95,0.00,,,0.00,meteohub,2013-10-23 05:46:00,
2013-10-23 01:51:00,36.5,35.2,29.86,SE,124,0.0,0.0,95,0.00,,,0.00,meteohub,2013-10-23 05:51:00,
2013-10-23 01:56:00,36.5,35.2,29.86,SE,125,0.0,0.0,95,0.00,,,0.00,meteohub,2013-10-23 05:56:00,
2013-10-23 02:01:00,36.3,35.1,29.86,SE,125,0.0,0.0,95,0.00,,,0.00,meteohub,2013-10-23 06:01:00,
2013-10-23 02:06:00,36.3,35.1,29.85,SE,125,0.0,0.0,95,0.00,,,0.00,meteohub,2013-10-23 06:06:00,
2013-10-23 02:11:00,36.1,34.9,29.85,SE,125,0.0,0.0,95,0.00,,,0.00,meteohub,2013-10-23 06:11:00,
2013-10-23 02:16:00,36.0,34.7,29.85,SE,125,0.0,0.0,95,0.00,,,0.00,meteohub,2013-10-23 06:16:00,
2013-10-23 02:21:00,36.3,35.2,29.85,SE,125,0.0,0.0,96,0.00,,,0.00,meteohub,2013-10-23 06:21:00,
2013-10-23 02:26:00,36.5,35.4,29.85,SE,125,0.0,0.0,96,0.00,,,0.00,meteohub,2013-10-23 06:26:00,
2013-10-23 02:31:00,36.5,35.4,29.85,SE,125,0.0,0.0,96,0.00,,,0.00,meteohub,2013-10-23 06:31:00,
2013-10-23 02:36:00,36.5,35.4,29.84,SE,125,0.0,0.0,96,0.00,,,0.00,meteohub,2013-10-23 06:36:00,
2013-10-23 02:41:00,36.7,35.6,29.84,SE,125,0.0,0.0,96,0.00,,,0.00,meteohub,2013-10-23 06:41:00,
2013-10-23 02:46:00,36.7,35.6,29.84,SE,125,0.0,0.0,96,0.00,,,0.00,meteohub,2013-10-23 06:46:00,
2013-10-23 02:51:00,36.7,35.6,29.84,SE,125,0.0,0.0,96,0.00,,,0.00,meteohub,2013-10-23 06:51:00,
2013-10-23 02:56:00,36.7,35.6,29.84,SE,125,0.0,0.0,96,0.00,,,0.00,meteohub,2013-10-23 06:56:00,
2013-10-23 03:02:00,36.7,35.6,29.84,SE,125,0.0,0.0,96,0.00,,,0.00,meteohub,2013-10-23 07:02:00,
2013-10-23 03:07:00,36.7,35.6,29.84,SE,126,0.0,0.0,96,0.00,,,0.00,meteohub,2013-10-23 07:07:00,
2013-10-23 03:12:00,36.7,35.6,29.84,SE,125,0.0,0.0,96,0.00,,,0.00,meteohub,2013-10-23 07:12:00,
2013-10-23 03:17:00,36.7,35.6,29.83,SE,124,0.0,0.0,96,0.00,,,0.00,meteohub,2013-10-23 07:17:00,
2013-10-23 03:22:00,36.7,35.6,29.83,SE,126,0.0,0.0,96,0.00,,,0.00,meteohub,2013-10-23 07:22:00,
2013-10-23 03:27:00,36.9,35.8,29.83,SE,125,0.0,0.0,96,0.00,,,0.00,meteohub,2013-10-23 07:27:00,
2013-10-23 03:32:00,37.0,36.0,29.83,SE,126,0.0,0.0,96,0.00,,,0.00,meteohub,2013-10-23 07:32:00,
2013-10-23 03:37:00,37.0,36.0,29.83,SE,125,0.0,0.0,96,0.00,,,0.00,meteohub,2013-10-23 07:37:00,
2013-10-23 03:42:00,37.0,36.0,29.83,SE,124,0.0,0.0,96,0.00,,,0.00,meteohub,2013-10-23 07:42:00,
2013-10-23 03:47:00,37.0,36.0,29.83,SE,125,0.0,0.0,96,0.00,,,0.00,meteohub,2013-10-23 07:47:00,
2013-10-23 03:52:00,37.0,36.0,29.83,SE,125,0.0,0.0,96,0.00,,,0.00,meteohub,2013-10-23 07:52:00,
2013-10-23 03:57:00,37.2,36.1,29.83,SE,125,0.0,0.0,96,0.00,,,0.00,meteohub,2013-10-23 07:57:00,
2013-10-23 04:02:00,37.2,36.1,29.83,SE,124,0.0,0.0,96,0.00,,,0.00,meteohub,2013-10-23 08:02:00,
2013-10-23 04:07:00,37.6,36.5,29.83,SSE,155,0.0,0.0,96,0.00,,,0.00,meteohub,2013-10-23 08:07:00,
2013-10-23 04:12:00,37.8,36.7,29.83,SSE,164,0.0,0.0,96,0.00,,,0.00,meteohub,2013-10-23 08:12:00,
2013-10-23 04:18:00,37.9,36.9,29.83,SSE,164,0.0,0.0,96,0.00,,,0.00,meteohub,2013-10-23 08:18:00,
2013-10-23 04:23:00,37.9,36.9,29.83,SSE,163,0.0,0.0,96,0.00,,,0.00,meteohub,2013-10-23 08:23:00,
2013-10-23 04:28:00,37.9,36.9,29.83,SSE,163,0.0,0.0,96,0.00,,,0.00,meteohub,2013-10-23 08:28:00,
2013-10-23 04:33:00,38.1,37.0,29.83,SSE,163,0.0,0.0,96,0.00,,,0.00,meteohub,2013-10-23 08:33:00,
2013-10-23 04:38:00,38.3,37.2,29.83,SSE,163,0.0,0.0,96,0.00,,,0.00,meteohub,2013-10-23 08:38:00,
2013-10-23 04:43:00,38.3,37.2,29.83,SSE,163,0.0,0.0,96,0.00,,,0.00,meteohub,2013-10-23 08:43:00,
2013-10-23 04:48:00,38.5,37.4,29.82,SSE,163,0.0,0.0,96,0.00,,,0.00,meteohub,2013-10-23 08:48:00,
2013-10-23 04:53:00,38.5,37.4,29.82,SSE,163,0.0,0.0,96,0.00,,,0.00,meteohub,2013-10-23 08:53:00,
2013-10-23 04:58:00,38.5,37.4,29.83,SSE,164,0.0,0.0,96,0.00,,,0.00,meteohub,2013-10-23 08:58:00,
2013-10-23 05:03:00,38.7,37.6,29.82,SSE,163,0.0,0.0,96,0.00,,,0.00,meteohub,2013-10-23 09:03:00,
2013-10-23 05:08:00,38.7,37.6,29.82,SSE,163,0.0,0.0,96,0.00,,,0.00,meteohub,2013-10-23 09:08:00,
2013-10-23 05:13:00,38.7,37.6,29.81,SSE,163,0.0,0.0,96,0.00,,,0.00,meteohub,2013-10-23 09:13:00,
2013-10-23 05:18:00,38.5,37.4,29.81,SSE,163,0.0,0.0,96,0.00,,,0.00,meteohub,2013-10-23 09:18:00,
2013-10-23 05:23:00,38.5,37.2,29.82,SSE,163,0.0,0.0,95,0.01,,,0.01,meteohub,2013-10-23 09:23:00,
2013-10-23 05:28:00,38.5,37.2,29.81,SSE,163,0.0,0.0,95,0.01,,,0.01,meteohub,2013-10-23 09:28:00,
2013-10-23 05:34:00,38.5,37.2,29.81,SSE,163,0.0,0.0,95,0.01,,,0.01,meteohub,2013-10-23 09:34:00,
2013-10-23 05:39:00,38.1,36.9,29.81,SSE,163,0.0,0.0,95,0.01,,,0.01,meteohub,2013-10-23 09:39:00,
2013-10-23 05:44:00,38.1,36.9,29.81,SSE,164,0.0,0.0,95,0.01,,,0.01,meteohub,2013-10-23 09:44:00,
2013-10-23 05:49:00,38.3,37.0,29.81,SSE,163,0.0,0.0,95,0.01,,,0.01,meteohub,2013-10-23 09:49:00,
2013-10-23 05:54:00,38.3,37.0,29.81,SSE,163,0.0,0.0,95,0.01,,,0.01,meteohub,2013-10-23 09:54:00,
2013-10-23 05:59:00,38.3,36.7,29.81,SSE,163,0.0,0.0,94,0.01,,,0.01,meteohub,2013-10-23 09:59:00,
2013-10-23 06:04:00,38.3,36.7,29.81,SSE,163,0.0,0.0,94,0.01,,,0.01,meteohub,2013-10-23 10:04:00,
2013-10-23 06:09:00,38.3,36.7,29.81,SSE,163,0.0,0.0,94,0.01,,,0.01,meteohub,2013-10-23 10:09:00,
2013-10-23 06:14:00,38.3,36.7,29.81,SSE,164,0.0,0.0,94,0.01,,,0.01,meteohub,2013-10-23 10:14:00,
2013-10-23 06:19:00,38.3,36.7,29.81,SSE,163,0.0,0.0,94,0.00,,,0.01,meteohub,2013-10-23 10:19:00,
2013-10-23 06:24:00,38.3,36.7,29.81,SSE,163,0.0,0.0,94,0.00,,,0.01,meteohub,2013-10-23 10:24:00,
2013-10-23 06:29:00,38.3,36.7,29.81,SSE,163,0.0,0.0,94,0.00,,,0.01,meteohub,2013-10-23 10:29:00,
2013-10-23 06:34:00,38.3,36.7,29.80,SSE,163,0.0,0.0,94,0.00,,,0.01,meteohub,2013-10-23 10:34:00,
2013-10-23 06:39:00,38.3,36.7,29.80,SSE,163,0.0,0.0,94,0.01,,,0.02,meteohub,2013-10-23 10:39:00,
2013-10-23 06:45:00,38.3,36.7,29.81,SSE,163,0.0,0.0,94,0.01,,,0.02,meteohub,2013-10-23 10:45:00,
2013-10-23 06:50:00,38.3,36.7,29.81,SSE,163,0.0,0.0,94,0.01,,,0.02,meteohub,2013-10-23 10:50:00,
2013-10-23 06:55:00,38.5,36.9,29.81,SSE,163,0.0,0.0,94,0.01,,,0.02,meteohub,2013-10-23 10:55:00,
2013-10-23 07:00:00,38.5,36.9,29.80,SSE,163,0.0,0.0,94,0.01,,,0.02,meteohub,2013-10-23 11:00:00,
2013-10-23 07:05:00,38.3,36.7,29.80,SSE,163,0.0,0.0,94,0.01,,,0.02,meteohub,2013-10-23 11:05:00,
2013-10-23 07:10:00,38.1,36.5,29.80,SSE,163,0.0,0.0,94,0.01,,,0.02,meteohub,2013-10-23 11:10:00,
2013-10-23 07:15:00,38.1,36.5,29.80,SSE,163,0.0,0.0,94,0.01,,,0.02,meteohub,2013-10-23 11:15:00,
2013-10-23 07:20:00,37.9,36.3,29.79,SSE,163,0.0,0.0,94,0.01,,,0.02,meteohub,2013-10-23 11:20:00,
2013-10-23 07:25:00,37.9,36.3,29.79,SSE,163,0.0,0.0,94,0.01,,,0.02,meteohub,2013-10-23 11:25:00,
2013-10-23 07:30:00,37.9,36.3,29.79,SSE,163,0.0,0.0,94,0.01,,,0.02,meteohub,2013-10-23 11:30:00,
2013-10-23 07:35:00,37.9,36.3,29.78,SSE,163,0.0,0.0,94,0.00,,,0.02,meteohub,2013-10-23 11:35:00,
2013-10-23 07:40:00,37.9,36.7,29.79,SSE,163,0.0,0.0,95,0.00,,,0.02,meteohub,2013-10-23 11:40:00,
2013-10-23 07:45:00,37.9,36.7,29.79,SSE,163,0.0,0.0,95,0.00,,,0.02,meteohub,2013-10-23 11:45:00,
2013-10-23 07:50:00,38.1,36.9,29.79,SSE,163,0.0,0.0,95,0.00,,,0.02,meteohub,2013-10-23 11:50:00,
2013-10-23 07:55:00,38.1,36.9,29.79,SSE,163,0.0,0.0,95,0.00,,,0.02,meteohub,2013-10-23 11:55:00,
2013-10-23 08:01:00,37.9,36.7,29.80,SSE,163,0.0,0.0,95,0.00,,,0.02,meteohub,2013-10-23 12:01:00,
2013-10-23 08:06:00,38.1,36.9,29.80,SSE,163,0.0,0.0,95,0.00,,,0.02,meteohub,2013-10-23 12:06:00,
2013-10-23 08:11:00,38.1,36.9,29.80,SSE,163,0.0,0.0,95,0.00,,,0.02,meteohub,2013-10-23 12:11:00,
2013-10-23 08:16:00,38.1,36.9,29.80,SSE,163,0.0,0.0,95,0.01,,,0.03,meteohub,2013-10-23 12:16:00,
2013-10-23 08:21:00,38.3,37.0,29.80,SSE,163,0.0,0.0,95,0.01,,,0.03,meteohub,2013-10-23 12:21:00,
2013-10-23 08:26:00,38.3,37.0,29.80,SSE,163,0.0,0.0,95,0.01,,,0.03,meteohub,2013-10-23 12:26:00,
2013-10-23 08:31:00,38.3,37.0,29.81,SSE,163,0.0,0.0,95,0.01,,,0.03,meteohub,2013-10-23 12:31:00,
2013-10-23 08:36:00,38.5,37.2,29.81,SSE,163,0.0,0.0,95,0.01,,,0.03,meteohub,2013-10-23 12:36:00,
2013-10-23 08:41:00,38.7,37.4,29.81,SSE,163,0.0,0.0,95,0.01,,,0.03,meteohub,2013-10-23 12:41:00,
2013-10-23 08:46:00,38.7,37.4,29.80,SSE,163,0.0,0.0,95,0.02,,,0.04,meteohub,2013-10-23 12:46:00,
2013-10-23 08:51:00,38.7,37.4,29.80,SSE,163,0.0,0.0,95,0.02,,,0.04,meteohub,2013-10-23 12:51:00,
2013-10-23 08:56:00,38.5,37.2,29.80,SSE,163,0.0,0.0,95,0.03,,,0.05,meteohub,2013-10-23 12:56:00,
2013-10-23 09:01:00,38.5,36.9,29.81,SSE,163,0.0,0.0,94,0.03,,,0.05,meteohub,2013-10-23 13:01:00,
2013-10-23 09:06:00,38.5,36.9,29.80,SSE,163,0.0,0.0,94,0.03,,,0.05,meteohub,2013-10-23 13:06:00,
2013-10-23 09:12:00,38.5,37.2,29.81,SSE,163,0.0,0.0,95,0.04,,,0.06,meteohub,2013-10-23 13:12:00,
2013-10-23 09:17:00,38.5,36.9,29.81,SSE,163,0.0,0.0,94,0.03,,,0.06,meteohub,2013-10-23 13:17:00,
2013-10-23 09:22:00,38.5,36.9,29.80,SSE,163,0.0,0.0,94,0.03,,,0.06,meteohub,2013-10-23 13:22:00,
2013-10-23 09:27:00,38.5,36.9,29.80,SSE,163,0.0,0.0,94,0.03,,,0.06,meteohub,2013-10-23 13:27:00,
2013-10-23 09:32:00,38.5,36.9,29.80,SSE,163,0.0,0.0,94,0.05,,,0.08,meteohub,2013-10-23 13:32:00,
2013-10-23 09:37:00,38.3,36.7,29.80,SSE,163,0.0,0.0,94,0.05,,,0.08,meteohub,2013-10-23 13:37:00,
2013-10-23 09:42:00,38.5,36.9,29.80,SSE,163,0.0,0.0,94,0.05,,,0.09,meteohub,2013-10-23 13:42:00,
2013-10-23 09:47:00,38.5,36.9,29.80,SSW,203,0.0,0.0,94,0.05,,,0.09,meteohub,2013-10-23 13:47:00,
2013-10-23 09:52:00,38.5,36.9,29.80,SSW,203,0.0,0.0,94,0.05,,,0.09,meteohub,2013-10-23 13:52:00,
2013-10-23 09:57:00,38.5,36.9,29.81,SSW,203,0.0,0.0,94,0.05,,,0.10,meteohub,2013-10-23 13:57:00,
2013-10-23 10:02:00,38.5,36.9,29.81,SSW,203,0.0,0.0,94,0.05,,,0.10,meteohub,2013-10-23 14:02:00,
2013-10-23 10:07:00,38.5,36.9,29.81,SSW,203,0.0,0.0,94,0.05,,,0.10,meteohub,2013-10-23 14:07:00,
2013-10-23 10:12:00,38.5,36.9,29.81,SSW,203,0.0,0.0,94,0.04,,,0.10,meteohub,2013-10-23 14:12:00,
2013-10-23 10:17:00,38.7,37.0,29.81,SW,235,0.0,0.0,94,0.05,,,0.11,meteohub,2013-10-23 14:17:00,
2013-10-23 10:23:00,38.8,37.2,29.81,SW,236,0.0,0.0,94,0.05,,,0.11,meteohub,2013-10-23 14:23:00,
2013-10-23 10:28:00,38.8,37.2,29.81,SW,236,0.0,0.0,94,0.04,,,0.11,meteohub,2013-10-23 14:28:00,
2013-10-23 10:33:00,38.8,37.2,29.81,SW,236,0.0,0.0,94,0.03,,,0.11,meteohub,2013-10-23 14:33:00,
2013-10-23 10:38:00,38.8,37.2,29.81,SW,236,0.0,0.0,94,0.02,,,0.11,meteohub,2013-10-23 14:38:00,
2013-10-23 10:43:00,39.0,37.4,29.81,SW,236,0.0,0.0,94,0.03,,,0.12,meteohub,2013-10-23 14:43:00,
2013-10-23 10:48:00,39.2,37.6,29.81,SW,236,0.0,0.0,94,0.03,,,0.12,meteohub,2013-10-23 14:48:00,
2013-10-23 10:53:00,39.0,37.2,29.81,SW,236,0.0,0.0,93,0.02,,,0.12,meteohub,2013-10-23 14:53:00,
2013-10-23 10:58:00,39.2,37.4,29.81,SW,236,0.0,1.0,93,0.02,,,0.12,meteohub,2013-10-23 14:58:00,
2013-10-23 11:03:00,39.4,37.6,29.80,SW,236,0.0,1.0,93,0.02,,,0.12,meteohub,2013-10-23 15:03:00,
2013-10-23 11:09:00,39.6,37.8,29.80,SW,236,0.0,1.0,93,0.02,,,0.12,meteohub,2013-10-23 15:09:00,
2013-10-23 11:14:00,39.7,37.9,29.80,NW,321,0.0,0.0,93,0.01,,,0.12,meteohub,2013-10-23 15:14:00,
2013-10-23 11:19:00,39.9,38.1,29.80,NW,311,0.0,0.0,93,0.01,,,0.12,meteohub,2013-10-23 15:19:00,
2013-10-23 11:24:00,39.9,37.8,29.80,WSW,256,0.0,0.0,92,0.01,,,0.12,meteohub,2013-10-23 15:24:00,
2013-10-23 11:29:00,40.1,37.9,29.81,NW,318,0.0,0.0,92,0.01,,,0.12,meteohub,2013-10-23 15:29:00,
2013-10-23 11:34:00,40.3,38.1,29.81,NW,318,0.0,1.0,92,0.01,,,0.12,meteohub,2013-10-23 15:34:00,
2013-10-23 11:39:00,40.3,37.9,29.80,NW,315,0.0,1.0,91,0.01,,,0.12,meteohub,2013-10-23 15:39:00,
2013-10-23 11:44:00,39.9,37.2,29.80,NW,315,0.0,1.0,90,0.00,,,0.12,meteohub,2013-10-23 15:44:00,
2013-10-23 11:49:00,39.9,37.6,29.80,NW,315,0.0,0.0,91,0.00,,,0.12,meteohub,2013-10-23 15:49:00,
2013-10-23 11:54:00,39.9,37.2,29.80,NW,315,0.0,0.0,90,0.00,,,0.12,meteohub,2013-10-23 15:54:00,
2013-10-23 12:00:00,40.3,38.1,29.80,NW,314,0.0,0.0,92,0.00,,,0.12,meteohub,2013-10-23 16:00:00,
2013-10-23 12:05:00,40.6,38.5,29.80,NW,315,0.0,0.0,92,0.00,,,0.12,meteohub,2013-10-23 16:05:00,
2013-10-23 12:10:00,40.6,38.5,29.80,NW,315,0.0,0.0,92,0.00,,,0.12,meteohub,2013-10-23 16:10:00,
2013-10-23 12:15:00,40.8,38.5,29.80,NW,314,0.0,0.0,91,0.00,,,0.12,meteohub,2013-10-23 16:15:00,
2013-10-23 12:20:00,40.6,38.3,29.80,NW,313,0.0,0.0,91,0.00,,,0.12,meteohub,2013-10-23 16:20:00,
2013-10-23 12:25:00,40.8,38.5,29.79,West,277,0.0,0.0,91,0.00,,,0.12,meteohub,2013-10-23 16:25:00,
2013-10-23 12:30:00,40.8,38.5,29.80,West,277,0.0,0.0,91,0.01,,,0.13,meteohub,2013-10-23 16:30:00,
2013-10-23 12:35:00,40.6,37.9,29.80,West,276,0.0,0.0,90,0.01,,,0.13,meteohub,2013-10-23 16:35:00,
2013-10-23 12:40:00,40.6,38.3,29.79,West,277,0.0,0.0,91,0.01,,,0.13,meteohub,2013-10-23 16:40:00,
2013-10-23 12:45:00,40.8,38.7,29.79,West,276,0.0,0.0,92,0.01,,,0.13,meteohub,2013-10-23 16:45:00,
2013-10-23 12:50:00,40.8,38.7,29.79,West,276,0.0,0.0,92,0.01,,,0.13,meteohub,2013-10-23 16:50:00,
2013-10-23 12:55:00,40.6,38.5,29.79,West,276,0.0,0.0,92,0.01,,,0.13,meteohub,2013-10-23 16:55:00,
2013-10-23 13:01:00,40.5,38.1,29.79,West,278,0.0,0.0,91,0.01,,,0.13,meteohub,2013-10-23 17:01:00,
2013-10-23 13:06:00,40.3,38.1,29.79,West,278,0.0,0.0,92,0.01,,,0.13,meteohub,2013-10-23 17:06:00,
2013-10-23 13:11:00,40.5,38.3,29.79,West,281,0.0,0.0,92,0.01,,,0.13,meteohub,2013-10-23 17:11:00,
2013-10-23 13:16:00,40.3,38.1,29.79,West,281,0.0,1.0,92,0.01,,,0.13,meteohub,2013-10-23 17:16:00,
2013-10-23 13:21:00,40.3,38.1,29.79,West,277,2.0,2.0,92,0.01,,,0.13,meteohub,2013-10-23 17:21:00,
2013-10-23 13:26:00,40.3,38.1,29.79,WNW,288,0.0,2.0,92,0.00,,,0.13,meteohub,2013-10-23 17:26:00,
2013-10-23 13:31:00,40.3,38.1,29.79,West,278,2.0,2.0,92,0.00,,,0.13,meteohub,2013-10-23 17:31:00,
2013-10-23 13:36:00,40.3,38.1,29.79,West,280,0.0,2.0,92,0.00,,,0.13,meteohub,2013-10-23 17:36:00,
2013-10-23 13:41:00,40.1,37.9,29.79,WNW,293,0.0,2.0,92,0.00,,,0.13,meteohub,2013-10-23 17:41:00,
2013-10-23 13:46:00,40.3,38.1,29.79,WNW,293,0.0,2.0,92,0.00,,,0.13,meteohub,2013-10-23 17:46:00,
2013-10-23 13:51:00,40.3,38.5,29.79,WNW,287,0.0,1.0,93,0.00,,,0.13,meteohub,2013-10-23 17:51:00,
2013-10-23 13:56:00,40.3,38.1,29.79,WNW,293,0.0,1.0,92,0.00,,,0.13,meteohub,2013-10-23 17:56:00,
2013-10-23 14:02:00,40.5,38.3,29.79,WNW,288,0.0,2.0,92,0.00,,,0.13,meteohub,2013-10-23 18:02:00,
2013-10-23 14:07:00,40.5,38.3,29.79,WNW,288,0.0,3.0,92,0.01,,,0.14,meteohub,2013-10-23 18:07:00,
2013-10-23 14:12:00,40.5,38.3,29.79,West,276,0.0,3.0,92,0.01,,,0.14,meteohub,2013-10-23 18:12:00,
2013-10-23 14:17:00,40.3,38.1,29.79,West,276,0.0,1.0,92,0.01,,,0.14,meteohub,2013-10-23 18:17:00,
2013-10-23 14:22:00,40.5,38.7,29.80,WNW,297,0.0,1.0,93,0.01,,,0.14,meteohub,2013-10-23 18:22:00,
2013-10-23 14:27:00,40.5,38.7,29.80,West,280,0.0,1.0,93,0.01,,,0.14,meteohub,2013-10-23 18:27:00,
2013-10-23 14:32:00,40.5,38.7,29.80,WNW,283,0.0,1.0,93,0.01,,,0.14,meteohub,2013-10-23 18:32:00,
2013-10-23 14:37:00,40.6,38.8,29.80,WNW,298,0.0,2.0,93,0.02,,,0.15,meteohub,2013-10-23 18:37:00,
2013-10-23 14:42:00,40.5,38.3,29.80,WNW,290,0.0,2.0,92,0.02,,,0.15,meteohub,2013-10-23 18:42:00,
2013-10-23 14:47:00,40.5,38.3,29.80,West,277,0.0,2.0,92,0.02,,,0.15,meteohub,2013-10-23 18:47:00,
2013-10-23 14:52:00,40.6,38.8,29.81,West,277,0.0,2.0,93,0.02,,,0.15,meteohub,2013-10-23 18:52:00,
2013-10-23 14:58:00,40.3,38.1,29.81,WNW,283,1.0,2.0,92,0.03,,,0.16,meteohub,2013-10-23 18:58:00,
2013-10-23 15:03:00,40.3,38.1,29.81,WNW,300,0.0,4.0,92,0.02,,,0.16,meteohub,2013-10-23 19:03:00,
2013-10-23 15:08:00,40.1,37.9,29.81,WNW,290,0.0,4.0,92,0.02,,,0.16,meteohub,2013-10-23 19:08:00,
2013-10-23 15:13:00,39.9,38.1,29.82,WNW,283,2.0,4.0,93,0.03,,,0.17,meteohub,2013-10-23 19:13:00,
2013-10-23 15:18:00,39.9,37.8,29.82,West,271,2.0,3.0,92,0.03,,,0.17,meteohub,2013-10-23 19:18:00,
2013-10-23 15:23:00,39.9,38.1,29.82,WNW,300,0.0,3.0,93,0.03,,,0.17,meteohub,2013-10-23 19:23:00,
2013-10-23 15:28:00,39.9,37.8,29.83,WNW,297,1.0,3.0,92,0.03,,,0.17,meteohub,2013-10-23 19:28:00,
2013-10-23 15:33:00,39.7,37.6,29.83,West,274,2.0,2.0,92,0.02,,,0.17,meteohub,2013-10-23 19:33:00,
2013-10-23 15:38:00,39.9,37.8,29.83,WNW,289,2.0,3.0,92,0.02,,,0.17,meteohub,2013-10-23 19:38:00,
2013-10-23 15:43:00,39.9,37.8,29.83,WSW,258,2.0,3.0,92,0.02,,,0.17,meteohub,2013-10-23 19:43:00,
2013-10-23 15:48:00,39.9,37.6,29.83,WSW,238,3.0,6.0,91,0.03,,,0.18,meteohub,2013-10-23 19:48:00,
2013-10-23 15:53:00,39.9,37.8,29.84,WNW,291,1.0,7.0,92,0.03,,,0.18,meteohub,2013-10-23 19:53:00,
2013-10-23 15:58:00,39.7,37.4,29.84,West,281,2.0,7.0,91,0.03,,,0.18,meteohub,2013-10-23 19:58:00,
2013-10-23 16:03:00,39.6,37.2,29.84,West,274,3.0,8.0,91,0.03,,,0.19,meteohub,2013-10-23 20:03:00,
2013-10-23 16:08:00,39.4,37.2,29.84,WNW,291,0.0,8.0,92,0.04,,,0.20,meteohub,2013-10-23 20:08:00,
2013-10-23 16:14:00,39.4,37.2,29.85,West,278,0.0,8.0,92,0.03,,,0.20,meteohub,2013-10-23 20:14:00,
2013-10-23 16:19:00,39.6,37.8,29.85,West,280,0.0,6.0,93,0.03,,,0.20,meteohub,2013-10-23 20:19:00,
2013-10-23 16:24:00,39.7,37.9,29.85,West,280,0.0,3.0,93,0.03,,,0.20,meteohub,2013-10-23 20:24:00,
2013-10-23 16:29:00,39.7,37.9,29.85,West,276,0.0,2.0,93,0.03,,,0.20,meteohub,2013-10-23 20:29:00,
2013-10-23 16:34:00,39.7,37.9,29.85,WNW,293,0.0,3.0,93,0.03,,,0.20,meteohub,2013-10-23 20:34:00,
2013-10-23 16:39:00,39.9,38.1,29.86,WSW,239,5.0,5.0,93,0.03,,,0.20,meteohub,2013-10-23 20:39:00,
2013-10-23 16:44:00,39.9,37.8,29.86,WSW,253,2.0,3.0,92,0.02,,,0.20,meteohub,2013-10-23 20:44:00,
2013-10-23 16:49:00,39.9,37.8,29.86,West,280,2.0,6.0,92,0.02,,,0.20,meteohub,2013-10-23 20:49:00,
2013-10-23 16:54:00,39.7,37.6,29.86,WNW,290,1.0,6.0,92,0.02,,,0.20,meteohub,2013-10-23 20:54:00,
2013-10-23 16:59:00,39.6,37.4,29.87,WNW,291,0.0,6.0,92,0.02,,,0.21,meteohub,2013-10-23 20:59:00,
2013-10-23 17:04:00,39.6,37.8,29.87,West,280,0.0,6.0,93,0.02,,,0.21,meteohub,2013-10-23 21:04:00,
2013-10-23 17:09:00,39.6,37.8,29.87,WNW,283,0.0,2.0,93,0.01,,,0.21,meteohub,2013-10-23 21:09:00,
2013-10-23 17:14:00,39.6,37.8,29.87,WNW,282,0.0,2.0,93,0.01,,,0.21,meteohub,2013-10-23 21:14:00,
2013-10-23 17:19:00,39.6,37.8,29.87,West,281,0.0,2.0,93,0.02,,,0.22,meteohub,2013-10-23 21:19:00,
2013-10-23 17:25:00,39.6,37.8,29.88,WSW,255,1.0,1.0,93,0.02,,,0.22,meteohub,2013-10-23 21:25:00,
2013-10-23 17:30:00,39.6,37.8,29.88,WSW,253,0.0,2.0,93,0.02,,,0.22,meteohub,2013-10-23 21:30:00,
2013-10-23 17:35:00,39.7,37.9,29.88,West,267,2.0,4.0,93,0.02,,,0.22,meteohub,2013-10-23 21:35:00,
2013-10-23 17:40:00,39.7,37.6,29.88,WNW,284,2.0,5.0,92,0.02,,,0.22,meteohub,2013-10-23 21:40:00,
2013-10-23 17:45:00,39.7,37.6,29.89,WNW,288,0.0,5.0,92,0.02,,,0.22,meteohub,2013-10-23 21:45:00,
2013-10-23 17:50:00,39.7,37.6,29.89,WNW,295,1.0,8.0,92,0.01,,,0.22,meteohub,2013-10-23 21:50:00,
2013-10-23 17:55:00,39.7,37.6,29.90,WNW,287,0.0,8.0,92,0.01,,,0.22,meteohub,2013-10-23 21:55:00,
2013-10-23 18:00:00,39.6,37.4,29.90,West,281,0.0,4.0,92,0.01,,,0.22,meteohub,2013-10-23 22:00:00,
2013-10-23 18:05:00,39.6,37.4,29.90,West,280,0.0,4.0,92,0.01,,,0.22,meteohub,2013-10-23 22:05:00,
2013-10-23 18:10:00,39.6,37.4,29.90,West,281,0.0,2.0,92,0.00,,,0.22,meteohub,2013-10-23 22:10:00,
2013-10-23 18:15:00,39.6,37.8,29.90,NE,38,1.0,0.0,93,0.00,,,0.22,meteohub,2013-10-23 22:15:00,
2013-10-23 18:20:00,39.6,37.8,29.91,WSW,248,0.0,1.0,93,0.00,,,0.22,meteohub,2013-10-23 22:20:00,
2013-10-23 18:25:00,39.6,37.4,29.91,WSW,248,0.0,2.0,92,0.00,,,0.22,meteohub,2013-10-23 22:25:00,
2013-10-23 18:31:00,39.7,37.6,29.91,WSW,256,1.0,3.0,92,0.00,,,0.22,meteohub,2013-10-23 22:31:00,
2013-10-23 18:36:00,39.7,37.9,29.91,WSW,256,0.0,3.0,93,0.00,,,0.22,meteohub,2013-10-23 22:36:00,
2013-10-23 18:41:00,39.7,37.6,29.91,West,260,1.0,2.0,92,0.00,,,0.22,meteohub,2013-10-23 22:41:00,
2013-10-23 18:46:00,39.7,37.6,29.91,WNW,282,1.0,2.0,92,0.00,,,0.22,meteohub,2013-10-23 22:46:00,
2013-10-23 18:51:00,39.7,37.6,29.92,WNW,283,0.0,2.0,92,0.00,,,0.22,meteohub,2013-10-23 22:51:00,
2013-10-23 18:56:00,39.7,37.6,29.92,West,259,0.0,2.0,92,0.00,,,0.22,meteohub,2013-10-23 22:56:00,
2013-10-23 19:01:00,39.7,37.6,29.93,West,276,0.0,3.0,92,0.00,,,0.22,meteohub,2013-10-23 23:01:00,
2013-10-23 19:06:00,39.7,37.6,29.93,WNW,288,2.0,3.0,92,0.00,,,0.22,meteohub,2013-10-23 23:06:00,
2013-10-23 19:11:00,39.7,37.6,29.93,WNW,288,0.0,3.0,92,0.00,,,0.22,meteohub,2013-10-23 23:11:00,
2013-10-23 19:16:00,39.7,37.6,29.94,WSW,256,0.0,2.0,92,0.00,,,0.22,meteohub,2013-10-23 23:16:00,
2013-10-23 19:21:00,39.7,37.4,29.94,West,276,2.0,2.0,91,0.00,,,0.22,meteohub,2013-10-23 23:21:00,
2013-10-23 19:26:00,39.7,37.4,29.94,WNW,291,1.0,4.0,91,0.00,,,0.22,meteohub,2013-10-23 23:26:00,
2013-10-23 19:31:00,39.7,37.6,29.95,West,276,1.0,4.0,92,0.00,,,0.22,meteohub,2013-10-23 23:31:00,
2013-10-23 19:36:00,39.4,37.0,29.95,WNW,300,0.0,4.0,91,0.01,,,0.23,meteohub,2013-10-23 23:36:00,
2013-10-23 19:42:00,39.2,37.0,29.95,WNW,295,0.0,4.0,92,0.01,,,0.23,meteohub,2013-10-23 23:42:00,
2013-10-23 19:47:00,39.0,36.7,29.95,West,280,2.0,4.0,91,0.01,,,0.23,meteohub,2013-10-23 23:47:00,
2013-10-23 19:52:00,39.0,36.7,29.95,West,259,0.0,6.0,91,0.01,,,0.23,meteohub,2013-10-23 23:52:00,
2013-10-23 19:57:00,39.0,36.3,29.96,West,278,0.0,6.0,90,0.01,,,0.23,meteohub,2013-10-23 23:57:00,
2013-10-23 20:02:00,38.8,36.1,29.96,WNW,283,0.0,6.0,90,0.01,,,0.23,meteohub,2013-10-24 00:02:00,
2013-10-23 20:07:00,38.8,36.1,29.96,West,276,4.0,4.0,90,0.01,,,0.23,meteohub,2013-10-24 00:07:00,
2013-10-23 20:12:00,38.8,36.1,29.96,WNW,291,0.0,6.0,90,0.01,,,0.23,meteohub,2013-10-24 00:12:00,
2013-10-23 20:17:00,38.8,36.1,29.96,WNW,293,0.0,6.0,90,0.01,,,0.23,meteohub,2013-10-24 00:17:00,
2013-10-23 20:22:00,38.7,36.0,29.97,WSW,246,2.0,6.0,90,0.01,,,0.23,meteohub,2013-10-24 00:22:00,
2013-10-23 20:27:00,38.7,36.0,29.97,WNW,293,0.0,3.0,90,0.01,,,0.23,meteohub,2013-10-24 00:27:00,
2013-10-23 20:32:00,38.7,35.8,29.97,West,274,0.0,3.0,89,0.00,,,0.23,meteohub,2013-10-24 00:32:00,
2013-10-23 20:37:00,38.7,35.8,29.97,West,274,0.0,6.0,89,0.00,,,0.23,meteohub,2013-10-24 00:37:00,
2013-10-23 20:42:00,38.5,35.8,29.97,WSW,257,0.0,6.0,90,0.00,,,0.23,meteohub,2013-10-24 00:42:00,
2013-10-23 20:48:00,38.5,35.8,29.97,WSW,257,0.0,6.0,90,0.00,,,0.23,meteohub,2013-10-24 00:48:00,
2013-10-23 20:53:00,38.5,36.1,29.98,ESE,108,2.0,3.0,91,0.00,,,0.23,meteohub,2013-10-24 00:53:00,
2013-10-23 20:58:00,38.5,36.1,29.98,NE,39,0.0,3.0,91,0.00,,,0.23,meteohub,2013-10-24 00:58:00,
2013-10-23 21:03:00,38.5,36.1,29.98,South,188,0.0,3.0,91,0.00,,,0.23,meteohub,2013-10-24 01:03:00,
2013-10-23 21:08:00,38.5,36.1,29.98,West,267,0.0,4.0,91,0.00,,,0.23,meteohub,2013-10-24 01:08:00,
2013-10-23 21:13:00,38.5,36.1,29.98,ESE,112,1.0,4.0,91,0.00,,,0.23,meteohub,2013-10-24 01:13:00,
2013-10-23 21:18:00,38.5,36.1,29.98,ESE,111,0.0,4.0,91,0.00,,,0.23,meteohub,2013-10-24 01:18:00,
2013-10-23 21:23:00,38.5,36.1,29.98,WSW,257,0.0,3.0,91,0.00,,,0.23,meteohub,2013-10-24 01:23:00,
2013-10-23 21:28:00,38.5,36.1,29.99,ESE,108,0.0,3.0,91,0.00,,,0.23,meteohub,2013-10-24 01:28:00,
2013-10-23 21:33:00,38.3,36.0,29.98,East,91,3.0,3.0,91,0.00,,,0.23,meteohub,2013-10-24 01:33:00,
2013-10-23 21:38:00,38.3,36.0,29.99,SW,235,1.0,3.0,91,0.00,,,0.23,meteohub,2013-10-24 01:38:00,
2013-10-23 21:43:00,38.3,36.0,29.99,SW,217,0.0,3.0,91,0.00,,,0.23,meteohub,2013-10-24 01:43:00,
2013-10-23 21:48:00,38.3,36.0,29.98,SSE,150,0.0,3.0,91,0.00,,,0.23,meteohub,2013-10-24 01:48:00,
2013-10-23 21:53:00,38.1,35.8,29.99,East,94,0.0,3.0,91,0.00,,,0.23,meteohub,2013-10-24 01:53:00,
2013-10-23 21:59:00,38.1,35.4,29.99,East,96,0.0,1.0,90,0.00,,,0.23,meteohub,2013-10-24 01:59:00,
2013-10-23 22:04:00,38.1,35.4,29.99,SSE,152,0.0,4.0,90,0.00,,,0.23,meteohub,2013-10-24 02:04:00,
2013-10-23 22:09:00,38.1,35.4,29.99,SSW,212,0.0,4.0,90,0.00,,,0.23,meteohub,2013-10-24 02:09:00,
2013-10-23 22:14:00,38.1,35.4,29.99,WNW,291,0.0,4.0,90,0.00,,,0.23,meteohub,2013-10-24 02:14:00,
2013-10-23 22:19:00,37.9,35.2,30.00,SW,233,2.0,5.0,90,0.00,,,0.23,meteohub,2013-10-24 02:19:00,
2013-10-23 22:24:00,37.9,35.2,30.00,ESE,120,0.0,5.0,90,0.00,,,0.23,meteohub,2013-10-24 02:24:00,
2013-10-23 22:29:00,37.9,35.2,30.00,WSW,255,0.0,3.0,90,0.00,,,0.23,meteohub,2013-10-24 02:29:00,
2013-10-23 22:34:00,37.9,35.2,30.00,SW,222,0.0,2.0,90,0.00,,,0.23,meteohub,2013-10-24 02:34:00,
2013-10-23 22:39:00,37.9,35.1,30.00,East,84,0.0,2.0,89,0.00,,,0.23,meteohub,2013-10-24 02:39:00,
2013-10-23 22:44:00,37.9,35.1,30.00,East,101,0.0,2.0,89,0.00,,,0.23,meteohub,2013-10-24 02:44:00,
2013-10-23 22:49:00,37.9,35.1,30.00,ESE,114,0.0,2.0,89,0.00,,,0.23,meteohub,2013-10-24 02:49:00,
2013-10-23 22:54:00,37.9,35.1,29.99,West,260,0.0,2.0,89,0.00,,,0.23,meteohub,2013-10-24 02:54:00,
2013-10-23 22:59:00,37.8,34.9,30.00,ESE,108,0.0,2.0,89,0.00,,,0.23,meteohub,2013-10-24 02:59:00,
2013-10-23 23:04:00,37.9,35.1,30.00,SW,233,1.0,2.0,89,0.00,,,0.23,meteohub,2013-10-24 03:04:00,
2013-10-23 23:09:00,37.9,35.1,29.99,WSW,249,0.0,6.0,89,0.00,,,0.23,meteohub,2013-10-24 03:09:00,
2013-10-23 23:15:00,38.1,35.2,30.00,WNW,285,0.0,6.0,89,0.00,,,0.23,meteohub,2013-10-24 03:15:00,
2013-10-23 23:20:00,38.1,34.9,30.00,WSW,255,2.0,6.0,88,0.00,,,0.23,meteohub,2013-10-24 03:20:00,
2013-10-23 23:25:00,38.1,35.2,30.00,WNW,285,0.0,5.0,89,0.00,,,0.23,meteohub,2013-10-24 03:25:00,
2013-10-23 23:30:00,37.9,35.1,30.00,West,266,0.0,5.0,89,0.00,,,0.23,meteohub,2013-10-24 03:30:00,
2013-10-23 23:35:00,37.9,35.1,30.00,East,92,2.0,3.0,89,0.00,,,0.23,meteohub,2013-10-24 03:35:00,
2013-10-23 23:40:00,37.9,34.7,30.00,West,266,0.0,4.0,88,0.00,,,0.23,meteohub,2013-10-24 03:40:00,
2013-10-23 23:45:00,37.8,34.9,30.00,WSW,243,4.0,5.0,89,0.00,,,0.23,meteohub,2013-10-24 03:45:00,
2013-10-23 23:50:00,37.6,34.7,30.00,West,278,2.0,6.0,89,0.00,,,0.23,meteohub,2013-10-24 03:50:00,
2013-10-23 23:55:00,37.6,34.9,30.00,West,270,2.0,6.0,90,0.00,,,0.23,meteohub,2013-10-24 03:55:00,